Time;durP1;ratioP1;P1;durP2;ratioP2;P2;SDS_P1;SDS_P2;PMS_P1;PMS_P2;Temp;Humidity;BMP_temperature;BMP_pressure;BME280_temperature;BME280_humidity;BME280_pressure;Samples;Min_cycle;Max_cycle;Signal;HPM_P1;HPM_P2
2021/11/26 00:01:36;;;;;;;15.10;9.88;;;4.70;99.90;;;;;;4893951;29;20024;-75
2021/11/26 00:04:04;;;;;;;10.40;8.80;;;4.70;99.90;;;;;;4898350;29;20426;-75
2021/11/26 00:06:31;;;;;;;11.65;6.70;;;4.70;99.90;;;;;;4880562;29;20028;-76
2021/11/26 00:08:57;;;;;;;10.40;5.70;;;4.70;99.90;;;;;;4899544;29;20040;-77
2021/11/26 00:11:23;;;;;;;8.73;4.95;;;4.70;99.90;;;;;;4900179;29;20056;-79
2021/11/26 00:13:59;;;;;;;7.80;4.32;;;4.70;99.90;;;;;;4898033;29;20028;-75
2021/11/26 00:16:32;;;;;;;15.13;5.38;;;4.70;99.90;;;;;;4897754;29;20020;-75
2021/11/26 00:19:03;;;;;;;5.90;3.97;;;4.80;99.90;;;;;;4882404;29;20025;-75
2021/11/26 00:21:29;;;;;;;7.05;4.22;;;4.80;99.90;;;;;;4879254;29;20076;-77
2021/11/26 00:23:54;;;;;;;10.60;5.47;;;4.80;99.90;;;;;;4891401;29;20036;-79
2021/11/26 00:26:20;;;;;;;8.57;4.20;;;4.80;99.90;;;;;;4898774;29;20032;-78
2021/11/26 00:28:46;;;;;;;6.85;3.95;;;4.90;99.90;;;;;;4897060;29;20037;-80
2021/11/26 00:31:11;;;;;;;8.60;4.70;;;4.90;99.90;;;;;;4897416;29;20035;-78
2021/11/26 00:33:37;;;;;;;10.02;4.25;;;5.00;99.90;;;;;;4898677;29;20032;-75
2021/11/26 00:36:03;;;;;;;8.10;4.00;;;5.00;99.90;;;;;;4899573;29;20033;-81
2021/11/26 00:38:28;;;;;;;5.85;3.42;;;5.00;99.90;;;;;;4898747;29;20036;-81
2021/11/26 00:40:54;;;;;;;10.27;4.57;;;5.10;99.90;;;;;;4898021;29;20027;-77
2021/11/26 00:43:20;;;;;;;10.57;4.43;;;5.10;99.90;;;;;;4898342;29;20045;-78
2021/11/26 00:45:45;;;;;;;8.57;4.13;;;5.10;99.90;;;;;;4897711;29;20020;-77
2021/11/26 00:48:11;;;;;;;13.80;5.18;;;5.10;99.90;;;;;;4896611;29;20085;-76
2021/11/26 00:50:37;;;;;;;6.65;4.13;;;5.20;99.90;;;;;;4897146;29;20029;-81
2021/11/26 00:53:04;;;;;;;5.32;3.78;;;5.20;99.90;;;;;;4898028;29;20043;-77
2021/11/26 00:55:30;;;;;;;7.78;3.92;;;5.30;99.90;;;;;;4898985;29;20065;-75
2021/11/26 00:57:55;;;;;;;5.38;3.58;;;5.30;99.90;;;;;;4898598;29;20044;-82
2021/11/26 01:00:21;;;;;;;5.65;4.05;;;5.40;99.90;;;;;;4898538;29;20080;-76
2021/11/26 01:02:47;;;;;;;6.03;4.00;;;5.40;99.90;;;;;;4897865;29;20040;-76
2021/11/26 01:05:15;;;;;;;5.10;3.40;;;5.40;99.90;;;;;;4882083;29;20064;-76
2021/11/26 01:07:42;;;;;;;6.82;3.88;;;5.40;99.90;;;;;;4897443;29;20043;-76
2021/11/26 01:10:11;;;;;;;6.18;3.97;;;5.50;99.90;;;;;;4898870;29;20029;-86
2021/11/26 01:12:37;;;;;;;8.30;4.05;;;5.50;99.90;;;;;;4894056;29;20036;-76
2021/11/26 01:15:08;;;;;;;7.38;4.25;;;5.50;99.90;;;;;;4898163;29;20036;-77
2021/11/26 01:17:36;;;;;;;5.90;3.72;;;5.50;99.90;;;;;;4898580;29;20069;-77
2021/11/26 01:20:04;;;;;;;5.75;3.85;;;5.50;99.90;;;;;;4898617;29;20497;-75
2021/11/26 01:22:30;;;;;;;4.70;3.22;;;5.40;99.90;;;;;;4884911;29;20025;-77
2021/11/26 01:24:55;;;;;;;6.53;3.42;;;5.40;99.90;;;;;;4886458;29;20911;-76
2021/11/26 01:27:21;;;;;;;4.85;3.28;;;5.50;99.90;;;;;;4899220;29;20020;-75
2021/11/26 01:29:47;;;;;;;4.63;2.95;;;5.50;99.90;;;;;;4898480;29;20036;-76
2021/11/26 01:32:12;;;;;;;5.13;3.42;;;5.50;99.90;;;;;;4898852;29;20033;-88
2021/11/26 01:34:38;;;;;;;6.57;3.80;;;5.40;99.90;;;;;;4897924;29;20450;-75
2021/11/26 01:37:03;;;;;;;5.95;3.65;;;5.40;99.90;;;;;;4899331;29;20088;-75
2021/11/26 01:39:29;;;;;;;9.52;4.80;;;5.50;99.90;;;;;;4898330;29;20461;-89
2021/11/26 01:41:55;;;;;;;7.50;3.72;;;5.50;99.90;;;;;;4897800;29;20021;-75
2021/11/26 01:44:21;;;;;;;5.38;3.78;;;5.50;99.90;;;;;;4882217;29;20072;-82
2021/11/26 01:46:47;;;;;;;7.13;3.83;;;5.50;99.90;;;;;;4898195;29;20039;-84
2021/11/26 01:49:13;;;;;;;7.15;4.15;;;5.50;99.90;;;;;;4898177;29;20120;-77
2021/11/26 01:51:40;;;;;;;6.60;3.50;;;5.50;99.90;;;;;;4897114;29;20477;-76
2021/11/26 01:54:06;;;;;;;5.47;3.25;;;5.50;99.90;;;;;;4896428;29;20140;-84
2021/11/26 01:56:32;;;;;;;6.30;3.03;;;5.60;99.90;;;;;;4896726;29;20041;-84
2021/11/26 01:58:59;;;;;;;6.60;3.47;;;5.60;99.90;;;;;;4896597;29;20091;-80
2021/11/26 02:01:25;;;;;;;5.07;3.17;;;5.60;99.90;;;;;;4896431;29;20468;-76
2021/11/26 02:03:50;;;;;;;7.75;3.30;;;5.70;99.90;;;;;;4897949;29;20060;-79
2021/11/26 02:06:16;;;;;;;4.95;3.47;;;5.70;99.90;;;;;;4898016;29;20029;-75
2021/11/26 02:08:42;;;;;;;5.30;3.10;;;5.70;99.90;;;;;;4879992;29;20032;-81
2021/11/26 02:11:08;;;;;;;4.88;3.00;;;5.70;99.90;;;;;;4881109;29;20017;-87
2021/11/26 02:13:33;;;;;;;4.40;2.70;;;5.70;99.90;;;;;;4896189;29;20480;-75
2021/11/26 02:16:01;;;;;;;4.97;2.88;;;5.70;99.90;;;;;;4880478;29;20025;-87
2021/11/26 02:18:27;;;;;;;5.53;2.83;;;5.70;99.90;;;;;;4881078;29;20028;-77
2021/11/26 02:20:53;;;;;;;5.75;2.72;;;5.70;99.90;;;;;;4880703;29;20435;-75
2021/11/26 02:23:19;;;;;;;4.47;2.70;;;5.70;99.90;;;;;;4896927;29;20123;-77
2021/11/26 02:25:46;;;;;;;4.22;2.33;;;5.70;99.90;;;;;;4879887;29;20097;-84
2021/11/26 02:28:15;;;;;;;4.88;2.42;;;5.70;99.90;;;;;;4892082;29;20047;-82
2021/11/26 02:30:41;;;;;;;4.75;2.70;;;5.70;99.90;;;;;;4893398;29;20027;-86
2021/11/26 02:33:13;;;;;;;3.33;1.90;;;5.70;99.90;;;;;;4862164;29;20067;-80
2021/11/26 02:35:40;;;;;;;4.57;2.10;;;5.80;99.90;;;;;;4882506;29;20020;-80
2021/11/26 02:38:08;;;;;;;3.35;2.08;;;5.80;99.90;;;;;;4897395;29;20043;-83
2021/11/26 02:40:36;;;;;;;2.85;2.13;;;5.90;99.90;;;;;;4896926;29;20040;-80
2021/11/26 02:43:02;;;;;;;2.35;1.73;;;5.80;99.90;;;;;;4896485;29;20032;-82
2021/11/26 02:45:28;;;;;;;3.50;1.65;;;5.90;99.90;;;;;;4880217;29;20024;-75
2021/11/26 02:47:54;;;;;;;2.70;1.88;;;5.90;99.90;;;;;;4880578;29;20119;-75
2021/11/26 02:50:22;;;;;;;2.22;1.77;;;6.00;99.90;;;;;;4896665;29;20045;-75
2021/11/26 02:52:49;;;;;;;2.65;1.50;;;6.00;99.90;;;;;;4861964;29;1037941;-88
2021/11/26 02:55:18;;;;;;;2.10;1.55;;;6.00;99.90;;;;;;4897614;29;20766;-75
2021/11/26 02:57:44;;;;;;;2.58;1.80;;;6.00;99.90;;;;;;4880562;29;20024;-89
2021/11/26 03:00:13;;;;;;;2.67;1.45;;;6.00;99.90;;;;;;4897849;29;20382;-88
2021/11/26 03:02:39;;;;;;;2.58;1.52;;;6.00;99.90;;;;;;4897642;29;20085;-86
2021/11/26 03:05:05;;;;;;;1.65;1.50;;;6.00;99.90;;;;;;4897565;29;20119;-78
2021/11/26 03:07:30;;;;;;;2.20;1.35;;;6.00;99.90;;;;;;4880694;29;20105;-83
2021/11/26 03:09:56;;;;;;;3.00;1.83;;;6.00;99.90;;;;;;4881207;29;20035;-86
2021/11/26 03:12:22;;;;;;;1.95;1.50;;;6.00;99.90;;;;;;4897124;29;20029;-77
2021/11/26 03:14:48;;;;;;;3.03;2.00;;;6.00;99.90;;;;;;4880696;29;20044;-83
2021/11/26 03:17:15;;;;;;;3.45;1.77;;;6.00;99.90;;;;;;4897139;29;20028;-77
2021/11/26 03:19:40;;;;;;;2.92;1.65;;;6.00;99.90;;;;;;4880948;29;20025;-76
2021/11/26 03:22:06;;;;;;;2.38;1.80;;;6.00;99.90;;;;;;4881347;29;20025;-76
2021/11/26 03:24:32;;;;;;;3.83;2.13;;;6.00;99.90;;;;;;4896855;29;20044;-87
2021/11/26 03:26:57;;;;;;;3.03;2.10;;;6.00;99.90;;;;;;4897727;29;20091;-76
2021/11/26 03:29:23;;;;;;;2.20;2.00;;;6.00;99.90;;;;;;4881349;29;20389;-76
2021/11/26 03:31:49;;;;;;;4.35;2.95;;;6.00;99.90;;;;;;4876185;29;20068;-81
2021/11/26 03:34:14;;;;;;;4.82;2.92;;;6.00;99.90;;;;;;4895408;29;20029;-74
2021/11/26 03:36:40;;;;;;;6.93;3.30;;;5.90;99.90;;;;;;4898385;29;20036;-86
2021/11/26 03:39:05;;;;;;;3.05;2.60;;;5.90;99.90;;;;;;4883736;29;20031;-86
2021/11/26 03:41:31;;;;;;;4.45;3.05;;;5.90;99.90;;;;;;4900523;29;20036;-76
2021/11/26 03:43:57;;;;;;;4.63;2.85;;;5.80;99.90;;;;;;4899945;29;20032;-76
2021/11/26 03:46:22;;;;;;;3.20;2.70;;;5.80;99.90;;;;;;4900689;29;20031;-83
2021/11/26 03:48:48;;;;;;;3.67;2.60;;;5.80;99.90;;;;;;4900721;29;20033;-87
2021/11/26 03:51:14;;;;;;;3.28;2.50;;;5.80;99.90;;;;;;4901240;29;20028;-75
2021/11/26 03:53:39;;;;;;;5.50;2.97;;;5.90;99.90;;;;;;4900050;29;20056;-87
2021/11/26 03:56:05;;;;;;;4.28;3.00;;;5.90;99.90;;;;;;4884331;29;20063;-75
2021/11/26 03:58:31;;;;;;;4.63;2.72;;;5.90;99.90;;;;;;4900579;29;20036;-76
2021/11/26 04:00:57;;;;;;;3.78;3.13;;;5.90;99.90;;;;;;4883441;29;20024;-76
2021/11/26 04:03:23;;;;;;;3.58;2.47;;;5.90;99.90;;;;;;4900464;29;20040;-75
2021/11/26 04:05:48;;;;;;;3.38;2.70;;;5.90;99.90;;;;;;4883928;29;20032;-75
2021/11/26 04:08:14;;;;;;;2.58;2.38;;;6.00;99.90;;;;;;4883290;29;20057;-75
2021/11/26 04:10:40;;;;;;;4.00;2.90;;;6.00;99.90;;;;;;4883722;29;20029;-76
2021/11/26 04:13:08;;;;;;;3.42;2.70;;;6.00;99.90;;;;;;4883903;29;20338;-86
2021/11/26 04:15:37;;;;;;;4.43;2.63;;;6.00;99.90;;;;;;4899686;29;20056;-75
2021/11/26 04:18:04;;;;;;;5.20;2.88;;;6.00;99.90;;;;;;4900733;29;20032;-75
2021/11/26 04:20:30;;;;;;;2.92;2.40;;;6.00;99.90;;;;;;4900015;29;20045;-82
2021/11/26 04:22:56;;;;;;;3.72;2.30;;;6.00;99.90;;;;;;4883785;29;20079;-76
2021/11/26 04:25:22;;;;;;;5.28;3.15;;;6.00;99.90;;;;;;4900681;29;20028;-81
2021/11/26 04:27:49;;;;;;;2.63;2.42;;;6.00;99.90;;;;;;4882764;29;20532;-76
2021/11/26 04:30:16;;;;;;;3.10;2.50;;;6.00;99.90;;;;;;4883582;29;20032;-77
2021/11/26 04:32:42;;;;;;;3.67;2.20;;;6.00;99.90;;;;;;4900135;29;20048;-75
2021/11/26 04:35:09;;;;;;;2.38;2.00;;;6.00;99.90;;;;;;4899318;29;20085;-76
2021/11/26 04:37:35;;;;;;;3.08;2.35;;;6.00;99.90;;;;;;4900223;29;20051;-81
2021/11/26 04:40:02;;;;;;;2.95;2.05;;;6.00;99.90;;;;;;4898883;29;20485;-75
2021/11/26 04:42:28;;;;;;;2.45;1.90;;;6.00;99.90;;;;;;4899377;29;20025;-78
2021/11/26 04:44:54;;;;;;;3.33;2.30;;;6.00;99.90;;;;;;4900033;29;20504;-75
2021/11/26 04:47:19;;;;;;;2.92;1.75;;;6.00;99.90;;;;;;4900205;29;20025;-75
2021/11/26 04:49:45;;;;;;;3.22;1.60;;;6.00;99.90;;;;;;4898747;29;20495;-76
2021/11/26 04:52:11;;;;;;;3.58;1.52;;;6.00;99.90;;;;;;4882962;29;20044;-84
2021/11/26 04:54:36;;;;;;;4.32;1.48;;;6.10;99.90;;;;;;4898708;29;20033;-87
2021/11/26 04:57:02;;;;;;;3.80;1.80;;;6.10;99.90;;;;;;4898258;29;20470;-88
2021/11/26 04:59:27;;;;;;;3.28;2.28;;;6.10;99.90;;;;;;4899407;29;20494;-86
2021/11/26 05:01:53;;;;;;;2.30;1.67;;;6.10;99.90;;;;;;4899690;29;20375;-75
2021/11/26 05:04:19;;;;;;;2.15;1.30;;;6.10;99.90;;;;;;4899124;29;20091;-87
2021/11/26 05:06:45;;;;;;;3.10;1.40;;;6.10;99.90;;;;;;4900031;29;20084;-86
2021/11/26 05:09:11;;;;;;;3.50;1.50;;;6.10;99.90;;;;;;4900069;29;20470;-76
2021/11/26 05:11:38;;;;;;;3.45;1.45;;;6.10;99.90;;;;;;4882171;29;20477;-77
2021/11/26 05:14:04;;;;;;;2.33;1.23;;;6.00;99.90;;;;;;4899691;29;20037;-75
2021/11/26 05:16:31;;;;;;;2.08;1.30;;;6.00;99.90;;;;;;4899612;29;20031;-78
2021/11/26 05:18:57;;;;;;;3.30;1.40;;;6.00;99.90;;;;;;4882050;29;20029;-74
2021/11/26 05:21:23;;;;;;;2.53;1.30;;;6.00;99.90;;;;;;4899610;29;20036;-75
2021/11/26 05:23:48;;;;;;;2.35;1.58;;;6.00;99.90;;;;;;4898463;29;20508;-77
2021/11/26 05:26:14;;;;;;;2.97;1.30;;;6.00;99.90;;;;;;4899679;29;20025;-75
2021/11/26 05:28:40;;;;;;;2.83;1.58;;;5.90;99.90;;;;;;4899374;29;20370;-79
2021/11/26 05:31:05;;;;;;;3.40;1.45;;;5.90;99.90;;;;;;4897366;29;20421;-83
2021/11/26 05:33:31;;;;;;;2.22;1.33;;;5.90;99.90;;;;;;4897637;29;20393;-76
2021/11/26 05:35:58;;;;;;;3.22;1.50;;;5.90;99.90;;;;;;4899169;29;20036;-76
2021/11/26 05:38:23;;;;;;;1.95;1.40;;;5.90;99.90;;;;;;4881678;29;20028;-82
2021/11/26 05:40:49;;;;;;;3.08;1.40;;;5.80;99.90;;;;;;4899063;29;20076;-80
2021/11/26 05:43:16;;;;;;;2.35;1.27;;;5.80;99.90;;;;;;4897622;29;20089;-77
2021/11/26 05:45:42;;;;;;;2.50;1.35;;;5.80;99.90;;;;;;4898203;29;20032;-76
2021/11/26 05:48:08;;;;;;;3.90;1.70;;;5.80;99.90;;;;;;4898969;29;20025;-85
2021/11/26 05:50:33;;;;;;;1.40;1.00;;;5.80;99.90;;;;;;4897263;29;20048;-75
2021/11/26 05:52:59;;;;;;;1.10;1.00;;;5.80;99.90;;;;;;4898254;29;20506;-75
2021/11/26 05:55:27;;;;;;;2.78;1.50;;;5.80;99.90;;;;;;4898608;29;20028;-75
2021/11/26 05:57:54;;;;;;;1.73;1.23;;;5.80;99.90;;;;;;4899056;29;20056;-75
2021/11/26 06:00:23;;;;;;;1.98;1.00;;;5.90;99.90;;;;;;4881460;29;20029;-79
2021/11/26 06:02:49;;;;;;;1.88;1.20;;;5.80;99.90;;;;;;4897110;29;20040;-77
2021/11/26 06:05:15;;;;;;;1.38;1.00;;;5.80;99.90;;;;;;4880833;29;20115;-75
2021/11/26 06:07:41;;;;;;;3.28;1.52;;;5.80;99.90;;;;;;4888125;29;20609;-75
2021/11/26 06:10:10;;;;;;;2.15;1.40;;;5.80;99.90;;;;;;4891126;29;20025;-75
2021/11/26 06:12:40;;;;;;;1.20;1.10;;;5.80;99.90;;;;;;4889862;29;20032;-76
2021/11/26 06:15:08;;;;;;;2.03;1.27;;;5.80;99.90;;;;;;4894925;29;20021;-86
2021/11/26 06:17:34;;;;;;;1.42;1.10;;;5.90;99.90;;;;;;4878495;29;20049;-76
2021/11/26 06:20:00;;;;;;;1.83;1.40;;;5.80;99.90;;;;;;4884785;29;20197;-77
2021/11/26 06:22:25;;;;;;;4.72;1.50;;;5.80;99.90;;;;;;4880819;29;20065;-76
2021/11/26 06:24:51;;;;;;;2.63;1.60;;;5.80;99.90;;;;;;4881951;29;20043;-77
2021/11/26 06:27:17;;;;;;;4.00;1.75;;;5.80;99.90;;;;;;4880887;29;20444;-80
2021/11/26 06:29:42;;;;;;;3.08;1.60;;;5.70;99.90;;;;;;4897726;29;20040;-80
2021/11/26 06:32:08;;;;;;;2.17;1.83;;;5.70;99.90;;;;;;4881213;29;20052;-83
2021/11/26 06:34:35;;;;;;;1.70;1.52;;;5.70;99.90;;;;;;4880689;29;20056;-83
2021/11/26 06:37:01;;;;;;;3.05;1.65;;;5.80;99.90;;;;;;4897816;29;20441;-84
2021/11/26 06:39:27;;;;;;;2.97;1.88;;;5.80;99.90;;;;;;4897715;29;20112;-84
2021/11/26 06:41:52;;;;;;;2.92;1.88;;;5.80;99.90;;;;;;4892186;29;20060;-80
2021/11/26 06:44:18;;;;;;;3.58;2.10;;;5.90;99.90;;;;;;4879354;29;20037;-83
2021/11/26 06:46:44;;;;;;;3.17;2.05;;;5.90;99.90;;;;;;4879240;29;20029;-79
2021/11/26 06:49:09;;;;;;;4.93;2.40;;;5.80;99.90;;;;;;4878782;29;20077;-82
2021/11/26 06:51:35;;;;;;;4.35;1.98;;;5.80;99.90;;;;;;4862365;29;20025;-83
2021/11/26 06:54:01;;;;;;;6.60;2.30;;;5.80;99.90;;;;;;4862509;29;20148;-79
2021/11/26 06:56:27;;;;;;;4.20;2.38;;;5.80;99.90;;;;;;4861567;29;20029;-78
2021/11/26 06:58:55;;;;;;;2.72;2.17;;;5.90;99.90;;;;;;4879275;29;20021;-76
2021/11/26 07:01:21;;;;;;;4.70;2.53;;;5.80;99.90;;;;;;4879182;29;20391;-84
2021/11/26 07:03:47;;;;;;;4.72;2.80;;;5.90;99.90;;;;;;4877147;29;20044;-77
2021/11/26 07:06:12;;;;;;;6.80;2.65;;;5.90;99.90;;;;;;4879118;29;20036;-75
2021/11/26 07:08:38;;;;;;;4.88;2.70;;;5.80;99.90;;;;;;4884231;29;20385;-86
2021/11/26 07:11:04;;;;;;;5.28;2.08;;;5.80;99.90;;;;;;4898568;29;20032;-78
2021/11/26 07:13:29;;;;;;;5.95;2.58;;;5.80;99.90;;;;;;4903748;29;20039;-76
2021/11/26 07:15:55;;;;;;;4.95;2.63;;;5.80;99.90;;;;;;4903811;29;20032;-74
2021/11/26 07:18:20;;;;;;;6.38;2.10;;;5.80;99.90;;;;;;4903380;29;20033;-85
2021/11/26 07:20:46;;;;;;;5.10;2.40;;;5.80;99.90;;;;;;4903426;29;20028;-79
2021/11/26 07:23:13;;;;;;;4.32;2.40;;;5.80;99.90;;;;;;4903618;29;20873;-81
2021/11/26 07:25:38;;;;;;;12.73;3.55;;;5.80;99.90;;;;;;4902089;29;20111;-85
2021/11/26 07:28:04;;;;;;;5.82;2.97;;;5.70;99.90;;;;;;4903275;29;20115;-78
2021/11/26 07:30:30;;;;;;;7.97;3.08;;;5.70;99.90;;;;;;4899540;29;20021;-76
2021/11/26 07:32:56;;;;;;;6.75;3.38;;;5.70;99.90;;;;;;4895256;29;20077;-76
2021/11/26 07:35:22;;;;;;;6.50;3.00;;;5.70;99.90;;;;;;4869318;29;20029;-84
2021/11/26 07:37:47;;;;;;;5.05;2.80;;;5.70;99.90;;;;;;4883295;29;20025;-86
2021/11/26 07:40:15;;;;;;;7.10;2.70;;;5.70;99.90;;;;;;4885077;29;20067;-83
2021/11/26 07:42:41;;;;;;;6.47;3.53;;;5.70;99.90;;;;;;4884711;29;20052;-81
2021/11/26 07:45:11;;;;;;;6.53;3.22;;;5.70;99.90;;;;;;4895845;29;20076;-79
2021/11/26 07:47:37;;;;;;;6.93;3.40;;;5.70;99.90;;;;;;4886590;29;20024;-84
2021/11/26 07:50:04;;;;;;;8.18;3.72;;;5.60;99.90;;;;;;4876978;29;20073;-81
2021/11/26 07:52:29;;;;;;;7.38;4.00;;;5.70;99.90;;;;;;4881536;29;20508;-79
2021/11/26 07:54:55;;;;;;;9.52;4.15;;;5.60;99.90;;;;;;4893218;29;20043;-80
2021/11/26 07:57:21;;;;;;;6.85;4.22;;;5.60;99.90;;;;;;4902747;29;20052;-77
2021/11/26 07:59:46;;;;;;;7.88;3.90;;;5.50;99.90;;;;;;4892098;29;20037;-78
2021/11/26 08:02:12;;;;;;;8.30;4.22;;;5.50;99.90;;;;;;4884741;29;20129;-82
2021/11/26 08:04:38;;;;;;;13.88;4.45;;;5.50;99.90;;;;;;4884079;29;20044;-81
2021/11/26 08:07:04;;;;;;;6.97;4.03;;;5.50;99.90;;;;;;4867743;29;20020;-81
2021/11/26 08:09:29;;;;;;;9.75;4.50;;;5.40;99.90;;;;;;4884231;29;20040;-76
2021/11/26 08:11:55;;;;;;;11.23;4.88;;;5.40;99.90;;;;;;4887990;29;20025;-76
2021/11/26 08:14:22;;;;;;;8.48;4.43;;;5.40;99.90;;;;;;4900561;29;20134;-83
2021/11/26 08:16:50;;;;;;;6.90;4.43;;;5.40;99.90;;;;;;4883833;29;20025;-78
2021/11/26 08:19:16;;;;;;;12.93;5.60;;;5.40;99.90;;;;;;4901997;29;20028;-74
2021/11/26 08:21:42;;;;;;;10.23;5.07;;;5.50;99.90;;;;;;4902869;29;20020;-78
2021/11/26 08:24:09;;;;;;;10.25;4.32;;;5.50;99.90;;;;;;4899585;29;20088;-82
2021/11/26 08:26:35;;;;;;;11.10;4.90;;;5.60;99.90;;;;;;4882131;29;20489;-80
2021/11/26 08:29:02;;;;;;;10.68;4.75;;;5.60;99.90;;;;;;4882825;29;20072;-78
2021/11/26 08:31:28;;;;;;;10.85;5.25;;;5.70;99.90;;;;;;4889856;29;20021;-80
2021/11/26 08:33:53;;;;;;;7.22;4.03;;;5.70;99.90;;;;;;4896659;29;20441;-81
2021/11/26 08:36:19;;;;;;;10.20;4.82;;;5.80;99.90;;;;;;4898286;29;20059;-75
2021/11/26 08:38:45;;;;;;;8.77;4.13;;;5.80;99.90;;;;;;4899969;29;20119;-84
2021/11/26 08:41:10;;;;;;;12.48;4.28;;;5.80;99.90;;;;;;4877127;29;20037;-85
2021/11/26 08:43:42;;;;;;;10.68;4.65;;;5.90;99.90;;;;;;4888671;29;20053;-85
2021/11/26 08:46:12;;;;;;;10.32;5.53;;;5.90;99.90;;;;;;4898683;29;20056;-84
2021/11/26 08:51:51;;;;;;;10.15;4.72;;;5.90;99.90;;;;;;4850243;29;20052;-78
2021/11/26 08:54:20;;;;;;;11.23;5.20;;;5.90;99.90;;;;;;4895661;29;20417;-78
2021/11/26 08:56:47;;;;;;;16.98;5.72;;;5.90;99.90;;;;;;4897294;29;20025;-81
2021/11/26 08:59:13;;;;;;;13.50;5.28;;;5.90;99.90;;;;;;4898560;29;20537;-81
2021/11/26 09:05:49;;;;;;;10.70;5.10;;;5.90;99.90;;;;;;4842812;29;20171;-85
2021/11/26 09:08:15;;;;;;;15.70;5.72;;;5.90;99.90;;;;;;4838838;29;20096;-81
2021/11/26 09:10:43;;;;;;;13.82;4.93;;;5.90;99.90;;;;;;4833717;29;20142;-83
2021/11/26 09:13:09;;;;;;;15.45;5.85;;;6.00;99.90;;;;;;4848096;29;20105;-89
2021/11/26 09:15:40;;;;;;;16.13;6.50;;;6.00;99.90;;;;;;4843607;29;20141;-85
2021/11/26 09:18:10;;;;;;;21.17;6.85;;;6.00;99.90;;;;;;4822825;29;20415;-89
2021/11/26 09:20:37;;;;;;;14.98;5.93;;;6.00;99.90;;;;;;4837596;29;20026;-87
2021/11/26 09:23:05;;;;;;;14.82;5.75;;;6.00;99.90;;;;;;4840684;29;20136;-78
2021/11/26 09:25:31;;;;;;;13.95;5.75;;;6.00;99.90;;;;;;4825851;29;20081;-87
2021/11/26 09:27:57;;;;;;;13.00;5.88;;;6.00;99.90;;;;;;4843483;29;20090;-80
2021/11/26 09:30:27;;;;;;;12.85;6.22;;;6.00;99.90;;;;;;4824866;29;20125;-82
2021/11/26 09:32:54;;;;;;;9.98;5.03;;;6.00;99.90;;;;;;4810861;29;20030;-76
2021/11/26 09:35:20;;;;;;;13.77;6.15;;;6.00;99.90;;;;;;4839654;29;20140;-83
2021/11/26 09:37:59;;;;;;;15.23;7.30;;;6.00;99.90;;;;;;4895598;29;20028;-86
2021/11/26 09:40:26;;;;;;;14.68;5.38;;;6.00;99.90;;;;;;4896903;29;20184;-86
2021/11/26 09:42:52;;;;;;;12.50;6.05;;;5.90;99.90;;;;;;4898402;29;20032;-78
2021/11/26 09:45:21;;;;;;;16.10;5.75;;;5.90;99.90;;;;;;4880758;29;20036;-78
2021/11/26 09:47:52;;;;;;;13.20;5.20;;;5.90;99.90;;;;;;4896373;29;20029;-74
2021/11/26 09:50:19;;;;;;;17.38;5.70;;;5.80;99.90;;;;;;4880756;29;20043;-74
2021/11/26 09:52:45;;;;;;;15.38;8.20;;;5.80;99.90;;;;;;4896887;29;20057;-77
2021/11/26 09:55:13;;;;;;;14.65;5.45;;;5.80;99.90;;;;;;4880366;29;20057;-77
2021/11/26 09:57:40;;;;;;;14.70;6.68;;;5.90;99.90;;;;;;4891701;29;20032;-89
2021/11/26 10:00:09;;;;;;;12.88;5.88;;;5.90;99.90;;;;;;4883864;29;20455;-78
2021/11/26 10:02:35;;;;;;;12.15;5.25;;;5.90;99.90;;;;;;4880291;29;20064;-76
2021/11/26 10:05:08;;;;;;;13.38;5.47;;;5.90;99.90;;;;;;4898063;29;20190;-75
2021/11/26 10:07:50;;;;;;;10.65;4.63;;;6.00;99.90;;;;;;4896975;29;20043;-93
2021/11/26 10:10:22;;;;;;;10.70;4.88;;;6.00;99.90;;;;;;4896820;29;20152;-83
2021/11/26 10:12:58;;;;;;;;;;;6.00;99.90;;;;;;4893361;29;20048;-78
2021/11/26 10:15:39;;;;;;;8.10;3.95;;;6.00;99.90;;;;;;4880013;29;20047;-79
2021/11/26 10:18:27;;;;;;;10.90;4.18;;;6.00;99.90;;;;;;4882148;29;20016;-75
2021/11/26 10:21:03;;;;;;;13.88;4.32;;;6.10;99.90;;;;;;4890199;29;20465;-74
2021/11/26 10:23:37;;;;;;;11.15;4.80;;;6.10;99.90;;;;;;4890685;29;20044;-77
2021/11/26 10:26:18;;;;;;;7.85;4.28;;;6.10;99.90;;;;;;4897132;29;20107;-88
2021/11/26 10:28:49;;;;;;;12.85;4.55;;;6.10;99.90;;;;;;4895665;29;20556;-82
2021/11/26 10:31:36;;;;;;;11.70;4.47;;;6.10;99.90;;;;;;4880152;29;20028;-82
2021/11/26 10:34:05;;;;;;;7.68;3.72;;;6.10;99.90;;;;;;4886695;29;20029;-81
2021/11/26 10:36:46;;;;;;;11.30;3.97;;;6.10;99.90;;;;;;4888451;29;20496;-77
2021/11/26 10:39:16;;;;;;;10.23;3.85;;;6.20;99.90;;;;;;4897956;29;20036;-74
2021/11/26 10:41:44;;;;;;;10.30;4.13;;;6.30;99.90;;;;;;4896954;29;20024;-82
2021/11/26 10:44:11;;;;;;;12.52;4.65;;;6.40;99.90;;;;;;4879332;29;20043;-74
2021/11/26 10:46:44;;;;;;;10.27;4.78;;;6.50;99.90;;;;;;4885560;29;20068;-78
2021/11/26 10:52:23;;;;;;;10.95;5.15;;;6.70;99.90;;;;;;4897225;29;20442;-83
2021/11/26 10:57:56;;;;;;;11.88;4.43;;;6.70;99.90;;;;;;4878669;29;20159;-76
2021/11/26 11:00:23;;;;;;;10.20;4.50;;;6.70;99.90;;;;;;4877504;29;20049;-78
2021/11/26 11:02:56;;;;;;;8.32;4.00;;;6.70;99.90;;;;;;4880524;29;20140;-74
2021/11/26 11:05:31;;;;;;;11.00;3.80;;;6.70;99.90;;;;;;4895288;29;20048;-75
2021/11/26 11:07:59;;;;;;;8.82;4.05;;;6.70;99.90;;;;;;4880034;29;20025;-75
2021/11/26 11:10:35;;;;;;;8.32;3.80;;;6.70;99.90;;;;;;4892807;29;20486;-76
2021/11/26 11:13:17;;;;;;;7.50;3.90;;;6.70;99.90;;;;;;4894678;29;20029;-74
2021/11/26 11:15:45;;;;;;;10.25;3.72;;;6.80;99.90;;;;;;4892767;29;20817;-78
2021/11/26 11:18:44;;;;;;;7.28;3.42;;;6.90;99.90;;;;;;4877061;29;20474;-90
2021/11/26 11:21:52;;;;;;;11.93;3.83;;;6.90;99.90;;;;;;4876901;29;20032;-84
2021/11/26 11:24:50;;;;;;;9.52;3.92;;;7.00;99.90;;;;;;4876528;29;20486;-89
2021/11/26 11:27:16;;;;;;;8.65;4.22;;;6.90;99.90;;;;;;4892970;29;20036;-76
2021/11/26 11:29:42;;;;;;;7.38;3.53;;;6.90;99.90;;;;;;4894063;29;20025;-79
2021/11/26 11:32:09;;;;;;;9.40;4.00;;;6.90;99.90;;;;;;4880346;29;20060;-78
2021/11/26 11:34:36;;;;;;;8.35;3.63;;;6.90;99.90;;;;;;4897074;29;20477;-77
2021/11/26 11:37:06;;;;;;;11.07;4.47;;;6.90;99.90;;;;;;4879186;29;20381;-76
2021/11/26 11:39:44;;;;;;;13.43;3.85;;;7.00;99.90;;;;;;4896391;29;20449;-81
2021/11/26 11:42:10;;;;;;;10.38;3.63;;;7.00;99.90;;;;;;4895510;29;20029;-75
2021/11/26 11:44:37;;;;;;;10.00;3.75;;;7.00;99.90;;;;;;4876543;29;20076;-81
2021/11/26 11:47:45;;;;;;;8.57;4.43;;;7.00;99.90;;;;;;4896872;29;20043;-84
2021/11/26 11:50:33;;;;;;;9.77;4.28;;;7.10;99.90;;;;;;4897228;29;20379;-79
2021/11/26 11:53:01;;;;;;;11.63;4.40;;;7.10;99.90;;;;;;4849801;29;20053;-78
2021/11/26 11:55:45;;;;;;;13.65;4.40;;;7.20;99.90;;;;;;4887359;29;20028;-84
2021/11/26 11:58:22;;;;;;;12.63;4.88;;;7.20;99.90;;;;;;4897997;29;20028;-80
2021/11/26 12:01:15;;;;;;;11.80;4.75;;;7.10;99.90;;;;;;4899254;29;20033;-81
2021/11/26 12:03:40;;;;;;;10.48;4.60;;;7.20;99.90;;;;;;4871783;29;20060;-83
2021/11/26 12:06:06;;;;;;;14.18;5.07;;;7.20;99.90;;;;;;4881098;29;20028;-80
2021/11/26 12:08:55;;;;;;;9.10;4.00;;;7.30;99.90;;;;;;4887599;29;20504;-76
2021/11/26 12:11:32;;;;;;;8.93;3.83;;;7.30;99.90;;;;;;4896587;29;20056;-78
2021/11/26 12:14:03;;;;;;;10.52;4.35;;;7.30;99.90;;;;;;4897464;29;20036;-76
2021/11/26 12:16:30;;;;;;;10.13;3.67;;;7.40;99.90;;;;;;4898183;29;20025;-77
2021/11/26 12:18:56;;;;;;;8.88;3.40;;;7.30;99.90;;;;;;4899501;29;20024;-81
2021/11/26 12:21:35;;;;;;;10.65;3.60;;;7.30;99.90;;;;;;4895779;29;20032;-81
2021/11/26 12:24:13;;;;;;;9.25;3.70;;;7.20;99.90;;;;;;4880266;29;20068;-77
2021/11/26 12:26:54;;;;;;;6.43;3.53;;;7.10;99.90;;;;;;4879632;29;20017;-77
2021/11/26 12:29:37;;;;;;;8.20;3.55;;;7.00;99.90;;;;;;4883556;29;20028;-83
2021/11/26 12:32:07;;;;;;;8.02;4.00;;;7.00;99.90;;;;;;4889894;29;20041;-86
2021/11/26 12:34:43;;;;;;;9.35;4.20;;;6.90;99.90;;;;;;4882084;29;20093;-80
2021/11/26 12:37:21;;;;;;;11.27;3.63;;;6.80;99.90;;;;;;4894214;29;20389;-80
2021/11/26 12:39:47;;;;;;;13.00;4.10;;;6.80;99.90;;;;;;4898009;29;20024;-78
2021/11/26 12:42:15;;;;;;;7.75;4.35;;;6.70;99.90;;;;;;4891087;29;20037;-81
2021/11/26 12:44:40;;;;;;;10.38;4.28;;;6.70;99.90;;;;;;4878252;29;20052;-78
2021/11/26 12:47:11;;;;;;;7.85;4.30;;;6.80;99.90;;;;;;4879392;29;20453;-76
2021/11/26 12:52:11;;;;;;;8.90;4.53;;;6.70;99.90;;;;;;4880180;29;20041;-78
2021/11/26 12:54:43;;;;;;;10.90;4.20;;;6.60;99.90;;;;;;4893434;29;20104;-79
2021/11/26 12:57:18;;;;;;;6.95;3.85;;;6.50;99.90;;;;;;4878618;29;20032;-80
2021/11/26 12:59:48;;;;;;;7.22;3.72;;;6.50;99.90;;;;;;4885763;29;20426;-78
2021/11/26 13:02:27;;;;;;;6.55;3.40;;;6.40;99.90;;;;;;4899259;29;20019;-73
2021/11/26 13:04:56;;;;;;;9.73;3.92;;;6.40;99.90;;;;;;4897098;29;20532;-78
2021/11/26 13:07:23;;;;;;;8.30;4.20;;;6.40;99.90;;;;;;4897899;29;20116;-77
2021/11/26 13:10:00;;;;;;;5.75;3.38;;;6.30;99.90;;;;;;4895899;29;20028;-80
2021/11/26 13:12:38;;;;;;;5.60;3.20;;;6.40;99.90;;;;;;4888821;29;20553;-83
2021/11/26 13:15:25;;;;;;;7.38;3.45;;;6.30;99.90;;;;;;4896878;29;20044;-80
2021/11/26 13:17:54;;;;;;;6.00;3.40;;;6.30;99.90;;;;;;4893503;29;20029;-80